sensor_id;sensor_type;location;lat;lon;timestamp;temperature;humidity
23233;DHT22;11785;49.500;8.288;2024-03-02T00:00:13;5.80;99.90
23233;DHT22;11785;49.500;8.288;2024-03-02T00:02:46;5.70;99.90
23233;DHT22;11785;49.500;8.288;2024-03-02T00:05:13;5.70;99.90
23233;DHT22;11785;49.500;8.288;2024-03-02T00:07:44;5.60;99.90
23233;DHT22;11785;49.500;8.288;2024-03-02T00:10:11;5.60;99.90
23233;DHT22;11785;49.500;8.288;2024-03-02T00:12:40;5.60;99.90
23233;DHT22;11785;49.500;8.288;2024-03-02T00:17:54;5.60;99.90
23233;DHT22;11785;49.500;8.288;2024-03-02T00:20:22;5.60;99.90
23233;DHT22;11785;49.500;8.288;2024-03-02T00:22:49;5.50;99.90
23233;DHT22;11785;49.500;8.288;2024-03-02T00:25:15;5.50;99.90
23233;DHT22;11785;49.500;8.288;2024-03-02T00:27:40;5.50;99.90
23233;DHT22;11785;49.500;8.288;2024-03-02T00:30:37;5.50;99.90
23233;DHT22;11785;49.500;8.288;2024-03-02T00:33:06;5.50;99.90
23233;DHT22;11785;49.500;8.288;2024-03-02T00:35:32;5.50;99.90
23233;DHT22;11785;49.500;8.288;2024-03-02T00:37:58;5.40;99.90
23233;DHT22;11785;49.500;8.288;2024-03-02T00:40:29;5.50;99.90
23233;DHT22;11785;49.500;8.288;2024-03-02T00:42:56;5.50;99.90
23233;DHT22;11785;49.500;8.288;2024-03-02T00:45:21;5.50;99.90
23233;DHT22;11785;49.500;8.288;2024-03-02T00:47:47;5.40;99.90
23233;DHT22;11785;49.500;8.288;2024-03-02T00:50:13;5.50;99.90
23233;DHT22;11785;49.500;8.288;2024-03-02T00:52:40;5.40;99.90
23233;DHT22;11785;49.500;8.288;2024-03-02T00:55:06;5.40;99.90
23233;DHT22;11785;49.500;8.288;2024-03-02T00:57:34;5.40;99.90
23233;DHT22;11785;49.500;8.288;2024-03-02T01:00:00;5.40;99.90
23233;DHT22;11785;49.500;8.288;2024-03-02T01:02:26;5.30;99.90
23233;DHT22;11785;49.500;8.288;2024-03-02T01:04:52;5.30;99.90
23233;DHT22;11785;49.500;8.288;2024-03-02T01:07:17;5.30;99.90
23233;DHT22;11785;49.500;8.288;2024-03-02T01:09:43;5.30;99.90
23233;DHT22;11785;49.500;8.288;2024-03-02T01:12:08;5.40;99.90
23233;DHT22;11785;49.500;8.288;2024-03-02T01:14:34;5.40;99.90
23233;DHT22;11785;49.500;8.288;2024-03-02T01:17:00;5.40;99.90
23233;DHT22;11785;49.500;8.288;2024-03-02T01:19:29;5.30;99.90
23233;DHT22;11785;49.500;8.288;2024-03-02T01:21:54;5.30;99.90
23233;DHT22;11785;49.500;8.288;2024-03-02T01:24:20;5.20;99.90
23233;DHT22;11785;49.500;8.288;2024-03-02T01:26:45;5.20;99.90
23233;DHT22;11785;49.500;8.288;2024-03-02T01:29:11;5.10;99.90
23233;DHT22;11785;49.500;8.288;2024-03-02T01:31:36;5.10;99.90
23233;DHT22;11785;49.500;8.288;2024-03-02T01:34:02;5.00;99.90
23233;DHT22;11785;49.500;8.288;2024-03-02T01:36:27;5.00;99.90
23233;DHT22;11785;49.500;8.288;2024-03-02T01:38:53;4.90;99.90
23233;DHT22;11785;49.500;8.288;2024-03-02T01:41:18;4.90;99.90
23233;DHT22;11785;49.500;8.288;2024-03-02T01:43:44;4.80;99.90
23233;DHT22;11785;49.500;8.288;2024-03-02T01:46:10;4.80;99.90
23233;DHT22;11785;49.500;8.288;2024-03-02T01:48:35;4.70;99.90
23233;DHT22;11785;49.500;8.288;2024-03-02T01:51:01;4.70;99.90
23233;DHT22;11785;49.500;8.288;2024-03-02T01:53:26;4.60;99.90
23233;DHT22;11785;49.500;8.288;2024-03-02T01:55:53;4.60;99.90
23233;DHT22;11785;49.500;8.288;2024-03-02T01:58:19;4.50;99.90
23233;DHT22;11785;49.500;8.288;2024-03-02T02:00:44;4.50;99.90
23233;DHT22;11785;49.500;8.288;2024-03-02T02:03:10;4.40;99.90
23233;DHT22;11785;49.500;8.288;2024-03-02T02:05:36;4.30;99.90
23233;DHT22;11785;49.500;8.288;2024-03-02T02:08:01;4.20;99.90
23233;DHT22;11785;49.500;8.288;2024-03-02T02:10:27;4.10;99.90
23233;DHT22;11785;49.500;8.288;2024-03-02T02:12:53;4.00;99.90
23233;DHT22;11785;49.500;8.288;2024-03-02T02:15:26;4.00;99.90
23233;DHT22;11785;49.500;8.288;2024-03-02T02:17:52;3.90;99.90
23233;DHT22;11785;49.500;8.288;2024-03-02T02:20:18;3.80;99.90
23233;DHT22;11785;49.500;8.288;2024-03-02T02:23:01;3.80;99.90
23233;DHT22;11785;49.500;8.288;2024-03-02T02:25:27;3.80;99.90
23233;DHT22;11785;49.500;8.288;2024-03-02T02:27:54;3.70;99.90
23233;DHT22;11785;49.500;8.288;2024-03-02T02:30:22;3.70;99.90
23233;DHT22;11785;49.500;8.288;2024-03-02T02:32:47;3.80;99.90
23233;DHT22;11785;49.500;8.288;2024-03-02T02:35:13;3.70;99.90
23233;DHT22;11785;49.500;8.288;2024-03-02T02:37:39;3.60;99.90
23233;DHT22;11785;49.500;8.288;2024-03-02T02:40:05;3.60;99.90
23233;DHT22;11785;49.500;8.288;2024-03-02T02:42:31;3.50;99.90
23233;DHT22;11785;49.500;8.288;2024-03-02T02:44:56;3.50;99.90
23233;DHT22;11785;49.500;8.288;2024-03-02T02:47:22;3.40;99.90
23233;DHT22;11785;49.500;8.288;2024-03-02T02:49:47;3.40;99.90
23233;DHT22;11785;49.500;8.288;2024-03-02T02:52:13;3.30;99.90
23233;DHT22;11785;49.500;8.288;2024-03-02T02:54:38;3.30;99.90
23233;DHT22;11785;49.500;8.288;2024-03-02T02:57:04;3.30;99.90
23233;DHT22;11785;49.500;8.288;2024-03-02T02:59:30;3.20;99.90
23233;DHT22;11785;49.500;8.288;2024-03-02T03:01:55;3.20;99.90
23233;DHT22;11785;49.500;8.288;2024-03-02T03:04:21;3.20;99.90
23233;DHT22;11785;49.500;8.288;2024-03-02T03:06:46;3.20;99.90
23233;DHT22;11785;49.500;8.288;2024-03-02T03:09:12;3.20;99.90
23233;DHT22;11785;49.500;8.288;2024-03-02T03:11:37;3.20;99.90
23233;DHT22;11785;49.500;8.288;2024-03-02T03:14:03;3.20;99.90
23233;DHT22;11785;49.500;8.288;2024-03-02T03:16:30;3.20;99.90
23233;DHT22;11785;49.500;8.288;2024-03-02T03:18:55;3.20;99.90
23233;DHT22;11785;49.500;8.288;2024-03-02T03:21:21;3.20;99.90
23233;DHT22;11785;49.500;8.288;2024-03-02T03:23:47;3.20;99.90
23233;DHT22;11785;49.500;8.288;2024-03-02T03:26:12;3.20;99.90
23233;DHT22;11785;49.500;8.288;2024-03-02T03:28:38;3.20;99.90
23233;DHT22;11785;49.500;8.288;2024-03-02T03:31:04;3.20;99.90
23233;DHT22;11785;49.500;8.288;2024-03-02T03:33:29;3.30;99.90
23233;DHT22;11785;49.500;8.288;2024-03-02T03:35:55;3.40;99.90
23233;DHT22;11785;49.500;8.288;2024-03-02T03:38:21;3.40;99.90
23233;DHT22;11785;49.500;8.288;2024-03-02T03:40:46;3.40;99.90
23233;DHT22;11785;49.500;8.288;2024-03-02T03:43:12;3.40;99.90
23233;DHT22;11785;49.500;8.288;2024-03-02T03:45:38;3.50;99.90
23233;DHT22;11785;49.500;8.288;2024-03-02T03:48:04;3.50;99.90
23233;DHT22;11785;49.500;8.288;2024-03-02T03:50:29;3.50;99.90
23233;DHT22;11785;49.500;8.288;2024-03-02T03:52:55;3.50;99.90
23233;DHT22;11785;49.500;8.288;2024-03-02T03:55:21;3.50;99.90
23233;DHT22;11785;49.500;8.288;2024-03-02T03:57:46;3.50;99.90
23233;DHT22;11785;49.500;8.288;2024-03-02T04:00:12;3.50;99.90
23233;DHT22;11785;49.500;8.288;2024-03-02T04:02:38;3.50;99.90
23233;DHT22;11785;49.500;8.288;2024-03-02T04:05:04;3.50;99.90
23233;DHT22;11785;49.500;8.288;2024-03-02T04:07:37;3.50;99.90
23233;DHT22;11785;49.500;8.288;2024-03-02T04:10:07;3.40;99.90
23233;DHT22;11785;49.500;8.288;2024-03-02T04:12:33;3.40;99.90
23233;DHT22;11785;49.500;8.288;2024-03-02T04:14:59;3.40;99.90
23233;DHT22;11785;49.500;8.288;2024-03-02T04:17:26;3.40;99.90
23233;DHT22;11785;49.500;8.288;2024-03-02T04:19:52;3.30;99.90
23233;DHT22;11785;49.500;8.288;2024-03-02T04:22:17;3.30;99.90
23233;DHT22;11785;49.500;8.288;2024-03-02T04:24:43;3.30;99.90
23233;DHT22;11785;49.500;8.288;2024-03-02T04:27:08;3.20;99.90
23233;DHT22;11785;49.500;8.288;2024-03-02T04:29:34;3.20;99.90
23233;DHT22;11785;49.500;8.288;2024-03-02T04:32:00;3.20;99.90
23233;DHT22;11785;49.500;8.288;2024-03-02T04:34:25;3.20;99.90
23233;DHT22;11785;49.500;8.288;2024-03-02T04:36:51;3.20;99.90
23233;DHT22;11785;49.500;8.288;2024-03-02T04:39:16;3.20;99.90
23233;DHT22;11785;49.500;8.288;2024-03-02T04:41:42;3.20;99.90
23233;DHT22;11785;49.500;8.288;2024-03-02T04:44:07;3.20;99.90
23233;DHT22;11785;49.500;8.288;2024-03-02T04:46:33;3.10;99.90
23233;DHT22;11785;49.500;8.288;2024-03-02T04:48:59;3.10;99.90
23233;DHT22;11785;49.500;8.288;2024-03-02T04:51:24;3.10;99.90
23233;DHT22;11785;49.500;8.288;2024-03-02T04:53:50;3.10;99.90
23233;DHT22;11785;49.500;8.288;2024-03-02T04:56:15;3.10;99.90
23233;DHT22;11785;49.500;8.288;2024-03-02T04:58:59;3.10;99.90
23233;DHT22;11785;49.500;8.288;2024-03-02T05:01:25;3.20;99.90
23233;DHT22;11785;49.500;8.288;2024-03-02T05:03:50;3.20;99.90
23233;DHT22;11785;49.500;8.288;2024-03-02T05:06:16;3.20;99.90
23233;DHT22;11785;49.500;8.288;2024-03-02T05:08:41;3.30;99.90
23233;DHT22;11785;49.500;8.288;2024-03-02T05:11:07;3.30;99.90
23233;DHT22;11785;49.500;8.288;2024-03-02T05:14:05;3.30;99.90
23233;DHT22;11785;49.500;8.288;2024-03-02T05:16:37;3.40;99.90
23233;DHT22;11785;49.500;8.288;2024-03-02T05:19:07;3.50;99.90
23233;DHT22;11785;49.500;8.288;2024-03-02T05:21:33;3.50;99.90
23233;DHT22;11785;49.500;8.288;2024-03-02T05:23:59;3.60;99.90
23233;DHT22;11785;49.500;8.288;2024-03-02T05:26:25;3.60;99.90
23233;DHT22;11785;49.500;8.288;2024-03-02T05:28:50;3.60;99.90
23233;DHT22;11785;49.500;8.288;2024-03-02T05:31:16;3.70;99.90
23233;DHT22;11785;49.500;8.288;2024-03-02T05:33:42;3.70;99.90
23233;DHT22;11785;49.500;8.288;2024-03-02T05:36:08;3.70;99.90
23233;DHT22;11785;49.500;8.288;2024-03-02T05:38:36;3.70;99.90
23233;DHT22;11785;49.500;8.288;2024-03-02T05:41:03;3.70;99.90
23233;DHT22;11785;49.500;8.288;2024-03-02T05:43:28;3.70;99.90
23233;DHT22;11785;49.500;8.288;2024-03-02T05:45:54;3.80;99.90
23233;DHT22;11785;49.500;8.288;2024-03-02T05:48:20;3.80;99.90
23233;DHT22;11785;49.500;8.288;2024-03-02T05:50:45;3.80;99.90
23233;DHT22;11785;49.500;8.288;2024-03-02T05:53:11;3.80;99.90
23233;DHT22;11785;49.500;8.288;2024-03-02T05:55:36;3.90;99.90
23233;DHT22;11785;49.500;8.288;2024-03-02T05:58:02;3.90;99.90
23233;DHT22;11785;49.500;8.288;2024-03-02T06:00:53;3.90;99.90
23233;DHT22;11785;49.500;8.288;2024-03-02T06:03:19;3.90;99.90
23233;DHT22;11785;49.500;8.288;2024-03-02T06:05:45;3.90;99.90
23233;DHT22;11785;49.500;8.288;2024-03-02T06:08:10;3.90;99.90
23233;DHT22;11785;49.500;8.288;2024-03-02T06:10:36;3.90;99.90
23233;DHT22;11785;49.500;8.288;2024-03-02T06:13:02;3.90;99.90
23233;DHT22;11785;49.500;8.288;2024-03-02T06:15:27;4.00;99.90
23233;DHT22;11785;49.500;8.288;2024-03-02T06:17:53;4.00;99.90
23233;DHT22;11785;49.500;8.288;2024-03-02T06:20:18;4.00;99.90
23233;DHT22;11785;49.500;8.288;2024-03-02T06:22:44;4.00;99.90
23233;DHT22;11785;49.500;8.288;2024-03-02T06:25:12;4.00;99.90
23233;DHT22;11785;49.500;8.288;2024-03-02T06:27:38;4.00;99.90
23233;DHT22;11785;49.500;8.288;2024-03-02T06:30:04;4.10;99.90
23233;DHT22;11785;49.500;8.288;2024-03-02T06:32:31;4.00;99.90
23233;DHT22;11785;49.500;8.288;2024-03-02T06:34:56;4.00;99.90
23233;DHT22;11785;49.500;8.288;2024-03-02T06:37:22;3.90;99.90
23233;DHT22;11785;49.500;8.288;2024-03-02T06:39:48;4.00;99.90
23233;DHT22;11785;49.500;8.288;2024-03-02T06:42:13;4.00;99.90
23233;DHT22;11785;49.500;8.288;2024-03-02T06:44:41;4.10;99.90
23233;DHT22;11785;49.500;8.288;2024-03-02T06:47:07;4.10;99.90
23233;DHT22;11785;49.500;8.288;2024-03-02T06:49:32;4.20;99.90
23233;DHT22;11785;49.500;8.288;2024-03-02T06:51:59;4.30;99.90
23233;DHT22;11785;49.500;8.288;2024-03-02T06:54:25;4.30;99.90
23233;DHT22;11785;49.500;8.288;2024-03-02T06:56:50;4.40;99.90
23233;DHT22;11785;49.500;8.288;2024-03-02T06:59:16;4.40;99.90
23233;DHT22;11785;49.500;8.288;2024-03-02T07:01:45;4.50;99.90
23233;DHT22;11785;49.500;8.288;2024-03-02T07:04:10;4.60;99.90
23233;DHT22;11785;49.500;8.288;2024-03-02T07:06:36;4.70;99.90
23233;DHT22;11785;49.500;8.288;2024-03-02T07:09:01;4.80;99.90
23233;DHT22;11785;49.500;8.288;2024-03-02T07:11:27;4.80;99.90
23233;DHT22;11785;49.500;8.288;2024-03-02T07:13:52;4.90;99.90
23233;DHT22;11785;49.500;8.288;2024-03-02T07:16:18;4.90;99.90
23233;DHT22;11785;49.500;8.288;2024-03-02T07:18:46;4.90;99.90
23233;DHT22;11785;49.500;8.288;2024-03-02T07:21:17;5.00;99.90
23233;DHT22;11785;49.500;8.288;2024-03-02T07:23:42;4.90;99.90
23233;DHT22;11785;49.500;8.288;2024-03-02T07:26:08;5.00;99.90
23233;DHT22;11785;49.500;8.288;2024-03-02T07:28:33;5.10;99.90
23233;DHT22;11785;49.500;8.288;2024-03-02T07:31:03;5.10;99.90
23233;DHT22;11785;49.500;8.288;2024-03-02T07:33:33;5.10;99.90
23233;DHT22;11785;49.500;8.288;2024-03-02T07:35:59;5.20;99.90
23233;DHT22;11785;49.500;8.288;2024-03-02T07:38:26;5.30;99.90
23233;DHT22;11785;49.500;8.288;2024-03-02T07:40:52;5.30;99.90
23233;DHT22;11785;49.500;8.288;2024-03-02T07:43:18;5.30;99.90
23233;DHT22;11785;49.500;8.288;2024-03-02T07:45:45;5.40;99.90
23233;DHT22;11785;49.500;8.288;2024-03-02T07:48:10;5.40;99.90
23233;DHT22;11785;49.500;8.288;2024-03-02T07:50:36;5.50;99.90
23233;DHT22;11785;49.500;8.288;2024-03-02T07:53:03;5.50;99.90
23233;DHT22;11785;49.500;8.288;2024-03-02T07:55:29;5.70;99.90
23233;DHT22;11785;49.500;8.288;2024-03-02T07:57:55;5.80;99.90
23233;DHT22;11785;49.500;8.288;2024-03-02T08:00:21;6.00;99.90
23233;DHT22;11785;49.500;8.288;2024-03-02T08:02:48;6.20;99.90
23233;DHT22;11785;49.500;8.288;2024-03-02T08:05:13;6.40;99.90
23233;DHT22;11785;49.500;8.288;2024-03-02T08:07:39;6.50;99.90
23233;DHT22;11785;49.500;8.288;2024-03-02T08:10:06;6.60;99.90
23233;DHT22;11785;49.500;8.288;2024-03-02T08:12:32;6.80;99.90
23233;DHT22;11785;49.500;8.288;2024-03-02T08:14:58;6.90;99.90
23233;DHT22;11785;49.500;8.288;2024-03-02T08:17:23;7.00;99.90
23233;DHT22;11785;49.500;8.288;2024-03-02T08:19:49;7.10;99.90
23233;DHT22;11785;49.500;8.288;2024-03-02T08:22:15;7.20;99.90
23233;DHT22;11785;49.500;8.288;2024-03-02T08:24:41;7.20;99.90
23233;DHT22;11785;49.500;8.288;2024-03-02T08:27:06;7.30;99.90
23233;DHT22;11785;49.500;8.288;2024-03-02T08:29:32;7.50;99.90
23233;DHT22;11785;49.500;8.288;2024-03-02T08:31:58;7.80;99.90
23233;DHT22;11785;49.500;8.288;2024-03-02T08:34:23;8.00;99.90
23233;DHT22;11785;49.500;8.288;2024-03-02T08:36:49;8.20;99.90
23233;DHT22;11785;49.500;8.288;2024-03-02T08:39:15;8.20;99.90
23233;DHT22;11785;49.500;8.288;2024-03-02T08:41:47;8.30;99.90
23233;DHT22;11785;49.500;8.288;2024-03-02T08:44:13;8.30;99.90
23233;DHT22;11785;49.500;8.288;2024-03-02T08:46:39;8.40;99.90
23233;DHT22;11785;49.500;8.288;2024-03-02T08:49:05;8.40;99.90
23233;DHT22;11785;49.500;8.288;2024-03-02T08:51:31;8.60;99.90
23233;DHT22;11785;49.500;8.288;2024-03-02T08:53:57;8.80;99.90
23233;DHT22;11785;49.500;8.288;2024-03-02T08:56:23;9.00;99.90
23233;DHT22;11785;49.500;8.288;2024-03-02T08:58:52;9.30;99.90
23233;DHT22;11785;49.500;8.288;2024-03-02T09:01:18;9.80;99.70
23233;DHT22;11785;49.500;8.288;2024-03-02T09:03:45;10.00;96.80
23233;DHT22;11785;49.500;8.288;2024-03-02T09:06:11;10.10;95.40
23233;DHT22;11785;49.500;8.288;2024-03-02T09:08:38;10.20;94.70
23233;DHT22;11785;49.500;8.288;2024-03-02T09:11:05;10.50;93.50
23233;DHT22;11785;49.500;8.288;2024-03-02T09:13:32;10.70;92.60
23233;DHT22;11785;49.500;8.288;2024-03-02T09:15:58;11.20;90.20
23233;DHT22;11785;49.500;8.288;2024-03-02T09:18:23;11.40;88.00
23233;DHT22;11785;49.500;8.288;2024-03-02T09:20:49;11.70;83.80
23233;DHT22;11785;49.500;8.288;2024-03-02T09:23:14;12.00;80.30
23233;DHT22;11785;49.500;8.288;2024-03-02T09:25:40;12.40;76.80
23233;DHT22;11785;49.500;8.288;2024-03-02T09:28:06;12.40;74.10
23233;DHT22;11785;49.500;8.288;2024-03-02T09:30:32;12.50;71.50
23233;DHT22;11785;49.500;8.288;2024-03-02T09:32:58;12.40;72.80
23233;DHT22;11785;49.500;8.288;2024-03-02T09:35:23;12.70;69.80
23233;DHT22;11785;49.500;8.288;2024-03-02T09:37:49;12.30;70.40
23233;DHT22;11785;49.500;8.288;2024-03-02T09:40:15;12.10;71.70
23233;DHT22;11785;49.500;8.288;2024-03-02T09:42:41;12.30;70.10
23233;DHT22;11785;49.500;8.288;2024-03-02T09:45:09;12.40;70.60
23233;DHT22;11785;49.500;8.288;2024-03-02T09:47:35;12.50;67.50
23233;DHT22;11785;49.500;8.288;2024-03-02T09:50:01;12.40;67.30
23233;DHT22;11785;49.500;8.288;2024-03-02T09:52:27;12.30;69.40
23233;DHT22;11785;49.500;8.288;2024-03-02T09:54:53;12.40;67.80
23233;DHT22;11785;49.500;8.288;2024-03-02T09:57:19;12.30;67.60
23233;DHT22;11785;49.500;8.288;2024-03-02T09:59:44;12.20;66.60
23233;DHT22;11785;49.500;8.288;2024-03-02T10:02:11;12.10;67.90
23233;DHT22;11785;49.500;8.288;2024-03-02T10:04:36;12.30;66.70
23233;DHT22;11785;49.500;8.288;2024-03-02T10:07:17;12.70;62.90
23233;DHT22;11785;49.500;8.288;2024-03-02T10:09:45;13.10;59.90
23233;DHT22;11785;49.500;8.288;2024-03-02T10:12:12;13.30;59.80
23233;DHT22;11785;49.500;8.288;2024-03-02T10:14:38;13.10;59.80
23233;DHT22;11785;49.500;8.288;2024-03-02T10:17:06;13.10;59.80
23233;DHT22;11785;49.500;8.288;2024-03-02T10:19:33;13.20;59.80
23233;DHT22;11785;49.500;8.288;2024-03-02T10:22:00;13.30;59.70
23233;DHT22;11785;49.500;8.288;2024-03-02T10:24:26;13.00;59.80
23233;DHT22;11785;49.500;8.288;2024-03-02T10:26:52;12.80;59.90
23233;DHT22;11785;49.500;8.288;2024-03-02T10:29:18;13.00;59.90
23233;DHT22;11785;49.500;8.288;2024-03-02T10:31:45;13.30;59.70
23233;DHT22;11785;49.500;8.288;2024-03-02T10:34:13;13.30;59.70
23233;DHT22;11785;49.500;8.288;2024-03-02T10:36:43;13.60;59.60
23233;DHT22;11785;49.500;8.288;2024-03-02T10:39:09;13.70;59.60
23233;DHT22;11785;49.500;8.288;2024-03-02T10:41:36;13.90;59.50
23233;DHT22;11785;49.500;8.288;2024-03-02T10:44:03;14.00;59.40
23233;DHT22;11785;49.500;8.288;2024-03-02T10:46:30;14.10;59.40
23233;DHT22;11785;49.500;8.288;2024-03-02T10:49:00;14.40;59.30
23233;DHT22;11785;49.500;8.288;2024-03-02T10:51:27;14.60;59.20
23233;DHT22;11785;49.500;8.288;2024-03-02T10:53:54;14.50;59.30
23233;DHT22;11785;49.500;8.288;2024-03-02T10:56:32;14.90;59.20
23233;DHT22;11785;49.500;8.288;2024-03-02T11:01:48;15.40;58.90
23233;DHT22;11785;49.500;8.288;2024-03-02T11:04:16;15.40;59.00
23233;DHT22;11785;49.500;8.288;2024-03-02T11:06:49;15.60;58.80
23233;DHT22;11785;49.500;8.288;2024-03-02T11:09:21;15.10;58.90
23233;DHT22;11785;49.500;8.288;2024-03-02T11:11:56;14.90;59.10
23233;DHT22;11785;49.500;8.288;2024-03-02T11:14:25;15.10;59.00
23233;DHT22;11785;49.500;8.288;2024-03-02T11:16:51;15.30;58.90
23233;DHT22;11785;49.500;8.288;2024-03-02T11:19:18;15.50;58.80
23233;DHT22;11785;49.500;8.288;2024-03-02T11:21:44;15.40;58.80
23233;DHT22;11785;49.500;8.288;2024-03-02T11:26:53;15.20;58.90
23233;DHT22;11785;49.500;8.288;2024-03-02T11:32:06;15.20;59.00
23233;DHT22;11785;49.500;8.288;2024-03-02T11:34:38;15.40;59.00
23233;DHT22;11785;49.500;8.288;2024-03-02T11:37:11;15.40;58.90
23233;DHT22;11785;49.500;8.288;2024-03-02T11:39:38;15.60;58.90
23233;DHT22;11785;49.500;8.288;2024-03-02T11:42:06;15.50;58.70
23233;DHT22;11785;49.500;8.288;2024-03-02T11:44:35;15.50;58.80
23233;DHT22;11785;49.500;8.288;2024-03-02T11:47:05;15.70;58.60
23233;DHT22;11785;49.500;8.288;2024-03-02T11:49:42;16.10;58.60
23233;DHT22;11785;49.500;8.288;2024-03-02T11:52:09;16.20;58.50
23233;DHT22;11785;49.500;8.288;2024-03-02T11:54:37;16.40;58.50
23233;DHT22;11785;49.500;8.288;2024-03-02T11:57:07;16.90;58.30
23233;DHT22;11785;49.500;8.288;2024-03-02T11:59:33;17.10;58.30
23233;DHT22;11785;49.500;8.288;2024-03-02T12:01:59;17.40;58.20
23233;DHT22;11785;49.500;8.288;2024-03-02T12:04:26;17.60;58.10
23233;DHT22;11785;49.500;8.288;2024-03-02T12:07:01;17.90;58.00
23233;DHT22;11785;49.500;8.288;2024-03-02T12:09:28;18.00;57.90
23233;DHT22;11785;49.500;8.288;2024-03-02T12:12:09;18.00;57.90
23233;DHT22;11785;49.500;8.288;2024-03-02T12:14:38;17.90;57.90
23233;DHT22;11785;49.500;8.288;2024-03-02T12:17:04;18.10;57.80
23233;DHT22;11785;49.500;8.288;2024-03-02T12:19:31;17.70;57.90
23233;DHT22;11785;49.500;8.288;2024-03-02T12:21:57;17.40;58.00
23233;DHT22;11785;49.500;8.288;2024-03-02T12:24:24;17.80;57.90
23233;DHT22;11785;49.500;8.288;2024-03-02T12:26:50;17.70;57.90
23233;DHT22;11785;49.500;8.288;2024-03-02T12:29:19;17.20;57.90
23233;DHT22;11785;49.500;8.288;2024-03-02T12:31:44;17.30;58.00
23233;DHT22;11785;49.500;8.288;2024-03-02T12:34:14;17.40;57.90
23233;DHT22;11785;49.500;8.288;2024-03-02T12:36:40;18.20;57.70
23233;DHT22;11785;49.500;8.288;2024-03-02T12:39:10;18.80;57.50
23233;DHT22;11785;49.500;8.288;2024-03-02T12:41:36;19.50;57.30
23233;DHT22;11785;49.500;8.288;2024-03-02T12:44:05;20.20;57.20
23233;DHT22;11785;49.500;8.288;2024-03-02T12:46:32;21.70;56.70
23233;DHT22;11785;49.500;8.288;2024-03-02T12:48:58;21.50;56.70
23233;DHT22;11785;49.500;8.288;2024-03-02T12:51:24;20.90;56.80
23233;DHT22;11785;49.500;8.288;2024-03-02T12:53:57;21.80;56.50
23233;DHT22;11785;49.500;8.288;2024-03-02T12:56:24;22.10;56.50
23233;DHT22;11785;49.500;8.288;2024-03-02T12:58:59;23.40;56.10
23233;DHT22;11785;49.500;8.288;2024-03-02T13:01:25;23.60;55.90
23233;DHT22;11785;49.500;8.288;2024-03-02T13:03:52;24.50;55.80
23233;DHT22;11785;49.500;8.288;2024-03-02T13:06:18;24.00;55.70
23233;DHT22;11785;49.500;8.288;2024-03-02T13:08:45;24.20;55.80
23233;DHT22;11785;49.500;8.288;2024-03-02T13:11:12;24.00;55.70
23233;DHT22;11785;49.500;8.288;2024-03-02T13:13:39;22.50;56.10
23233;DHT22;11785;49.500;8.288;2024-03-02T13:16:09;22.90;56.00
23233;DHT22;11785;49.500;8.288;2024-03-02T13:18:35;24.20;55.70
23233;DHT22;11785;49.500;8.288;2024-03-02T13:21:01;23.80;55.70
23233;DHT22;11785;49.500;8.288;2024-03-02T13:23:26;23.50;55.80
23233;DHT22;11785;49.500;8.288;2024-03-02T13:25:52;24.10;55.70
23233;DHT22;11785;49.500;8.288;2024-03-02T13:28:17;25.30;46.80
23233;DHT22;11785;49.500;8.288;2024-03-02T13:30:43;25.10;46.80
23233;DHT22;11785;49.500;8.288;2024-03-02T13:33:08;25.50;46.90
23233;DHT22;11785;49.500;8.288;2024-03-02T13:35:34;25.60;47.00
23233;DHT22;11785;49.500;8.288;2024-03-02T13:38:00;26.30;47.30
23233;DHT22;11785;49.500;8.288;2024-03-02T13:40:25;26.80;47.40
23233;DHT22;11785;49.500;8.288;2024-03-02T13:42:51;27.40;47.70
23233;DHT22;11785;49.500;8.288;2024-03-02T13:45:19;27.30;47.70
23233;DHT22;11785;49.500;8.288;2024-03-02T13:47:44;26.40;47.40
23233;DHT22;11785;49.500;8.288;2024-03-02T13:50:10;26.70;47.50
23233;DHT22;11785;49.500;8.288;2024-03-02T13:52:35;26.60;47.50
23233;DHT22;11785;49.500;8.288;2024-03-02T13:55:01;27.10;47.60
23233;DHT22;11785;49.500;8.288;2024-03-02T13:57:27;27.40;47.80
23233;DHT22;11785;49.500;8.288;2024-03-02T13:59:53;28.10;48.00
23233;DHT22;11785;49.500;8.288;2024-03-02T14:02:19;28.10;48.00
23233;DHT22;11785;49.500;8.288;2024-03-02T14:04:45;27.00;47.60
23233;DHT22;11785;49.500;8.288;2024-03-02T14:07:11;26.20;47.40
23233;DHT22;11785;49.500;8.288;2024-03-02T14:09:37;24.80;55.20
23233;DHT22;11785;49.500;8.288;2024-03-02T14:12:03;24.50;55.30
23233;DHT22;11785;49.500;8.288;2024-03-02T14:14:29;24.50;55.30
23233;DHT22;11785;49.500;8.288;2024-03-02T14:16:55;23.10;55.70
23233;DHT22;11785;49.500;8.288;2024-03-02T14:19:31;22.90;55.70
23233;DHT22;11785;49.500;8.288;2024-03-02T14:21:57;23.30;55.70
23233;DHT22;11785;49.500;8.288;2024-03-02T14:24:22;23.20;55.70
23233;DHT22;11785;49.500;8.288;2024-03-02T14:26:52;21.60;56.10
23233;DHT22;11785;49.500;8.288;2024-03-02T14:29:18;21.90;56.00
23233;DHT22;11785;49.500;8.288;2024-03-02T14:31:44;23.10;55.70
23233;DHT22;11785;49.500;8.288;2024-03-02T14:34:13;22.90;55.70
23233;DHT22;11785;49.500;8.288;2024-03-02T14:36:39;22.40;55.90
23233;DHT22;11785;49.500;8.288;2024-03-02T14:39:05;21.70;56.10
23233;DHT22;11785;49.500;8.288;2024-03-02T14:41:34;21.30;56.20
23233;DHT22;11785;49.500;8.288;2024-03-02T14:44:00;21.00;56.20
23233;DHT22;11785;49.500;8.288;2024-03-02T14:46:25;20.60;56.40
23233;DHT22;11785;49.500;8.288;2024-03-02T14:48:51;20.60;56.40
23233;DHT22;11785;49.500;8.288;2024-03-02T14:51:16;20.20;56.50
23233;DHT22;11785;49.500;8.288;2024-03-02T14:53:42;20.00;56.60
23233;DHT22;11785;49.500;8.288;2024-03-02T14:56:07;19.70;56.60
23233;DHT22;11785;49.500;8.288;2024-03-02T14:58:33;19.70;56.70
23233;DHT22;11785;49.500;8.288;2024-03-02T15:01:00;20.00;56.60
23233;DHT22;11785;49.500;8.288;2024-03-02T15:03:26;19.60;56.70
23233;DHT22;11785;49.500;8.288;2024-03-02T15:05:52;19.20;56.80
23233;DHT22;11785;49.500;8.288;2024-03-02T15:08:19;18.70;57.00
23233;DHT22;11785;49.500;8.288;2024-03-02T15:10:44;18.40;57.10
23233;DHT22;11785;49.500;8.288;2024-03-02T15:13:10;18.10;57.20
23233;DHT22;11785;49.500;8.288;2024-03-02T15:15:35;17.70;57.30
23233;DHT22;11785;49.500;8.288;2024-03-02T15:18:01;17.50;57.40
23233;DHT22;11785;49.500;8.288;2024-03-02T15:20:27;17.30;57.40
23233;DHT22;11785;49.500;8.288;2024-03-02T15:22:52;17.00;57.50
23233;DHT22;11785;49.500;8.288;2024-03-02T15:25:18;16.80;57.60
23233;DHT22;11785;49.500;8.288;2024-03-02T15:27:44;16.70;57.60
23233;DHT22;11785;49.500;8.288;2024-03-02T15:30:09;16.70;57.60
23233;DHT22;11785;49.500;8.288;2024-03-02T15:32:35;16.60;57.60
23233;DHT22;11785;49.500;8.288;2024-03-02T15:35:02;16.50;57.70
23233;DHT22;11785;49.500;8.288;2024-03-02T15:37:28;16.40;57.70
23233;DHT22;11785;49.500;8.288;2024-03-02T15:39:53;16.20;57.80
23233;DHT22;11785;49.500;8.288;2024-03-02T15:42:19;16.10;57.80
23233;DHT22;11785;49.500;8.288;2024-03-02T15:44:48;16.00;57.80
23233;DHT22;11785;49.500;8.288;2024-03-02T15:47:14;15.90;57.90